Time;durP1;ratioP1;P1;durP2;ratioP2;P2;SDS_P1;SDS_P2;PMS_P1;PMS_P2;Temp;Humidity;BMP_temperature;BMP_pressure;BME280_temperature;BME280_humidity;BME280_pressure;Samples;Min_cycle;Max_cycle;Signal;HPM_P1;HPM_P2
2021/05/14 00:02:05;;;;;;;4.88;2.20;;;;;;;8.86;76.56;98526.66;5012417;28;20481;-63
2021/05/14 00:04:30;;;;;;;3.25;2.10;;;;;;;8.87;75.74;98532.81;5027744;28;20034;-61
2021/05/14 00:06:58;;;;;;;3.95;2.05;;;;;;;8.72;76.32;98517.41;5012234;28;20049;-62
2021/05/14 00:09:24;;;;;;;2.83;2.03;;;;;;;8.73;76.29;98527.03;5012623;28;20469;-62
2021/05/14 00:11:49;;;;;;;2.53;1.80;;;;;;;8.67;76.21;98528.81;5012274;28;20053;-62
2021/05/14 00:14:15;;;;;;;6.38;2.20;;;;;;;8.60;76.21;98528.19;5012555;28;20088;-62
2021/05/14 00:16:41;;;;;;;4.10;2.22;;;;;;;8.52;76.62;98528.63;5012269;28;20038;-62
2021/05/14 00:19:06;;;;;;;2.92;2.08;;;;;;;8.43;77.13;98525.53;5012849;28;20022;-62
2021/05/14 00:21:32;;;;;;;3.53;2.10;;;;;;;8.42;77.03;98521.28;5012130;28;20066;-61
2021/05/14 00:23:57;;;;;;;3.05;2.13;;;;;;;8.48;76.37;98522.16;5011357;28;20022;-61
2021/05/14 00:26:23;;;;;;;2.97;2.05;;;;;;;8.45;75.93;98522.63;5012254;28;20045;-62
2021/05/14 00:28:49;;;;;;;4.63;2.20;;;;;;;8.49;75.41;98521.91;5012297;28;20057;-62
2021/05/14 00:31:14;;;;;;;3.00;2.00;;;;;;;8.40;75.81;98526.84;5027157;28;20100;-62
2021/05/14 00:33:40;;;;;;;4.43;2.42;;;;;;;8.45;75.37;98526.13;5016366;28;20030;-62
2021/05/14 00:36:06;;;;;;;3.47;2.33;;;;;;;8.49;75.12;98526.44;5015787;28;20464;-61
2021/05/14 00:38:31;;;;;;;4.93;2.22;;;;;;;8.38;75.21;98518.22;4998364;28;20109;-62
2021/05/14 00:40:56;;;;;;;3.47;2.13;;;;;;;8.39;74.89;98516.41;5015551;28;20112;-62
2021/05/14 00:43:22;;;;;;;4.38;2.13;;;;;;;8.36;74.72;98519.53;5015892;28;20456;-61
2021/05/14 00:45:47;;;;;;;4.05;2.10;;;;;;;8.37;74.22;98523.84;5015524;28;20473;-62
2021/05/14 00:48:13;;;;;;;3.20;2.05;;;;;;;8.32;74.20;98524.56;5015776;28;20030;-60
2021/05/14 00:50:38;;;;;;;3.30;2.03;;;;;;;8.21;74.92;98520.94;5015396;28;20037;-60
2021/05/14 00:53:04;;;;;;;3.03;2.15;;;;;;;7.94;75.82;98518.13;5015706;28;20025;-61
2021/05/14 00:55:29;;;;;;;4.03;2.22;;;;;;;7.72;76.65;98519.88;4997860;28;20082;-60
2021/05/14 00:57:55;;;;;;;3.35;2.20;;;;;;;7.64;76.88;98520.25;5015626;28;20033;-63
2021/05/14 01:00:20;;;;;;;3.92;2.15;;;;;;;7.51;77.50;98519.53;4997639;28;20045;-62
2021/05/14 01:02:50;;;;;;;3.75;2.13;;;;;;;7.42;77.35;98518.28;5015954;28;20022;-62
2021/05/14 01:05:16;;;;;;;2.43;2.03;;;;;;;7.43;77.34;98521.78;5015191;28;20487;-63
2021/05/14 01:07:41;;;;;;;3.47;2.20;;;;;;;7.44;76.63;98518.88;5015502;28;20268;-62
2021/05/14 01:10:07;;;;;;;3.55;2.30;;;;;;;7.58;75.61;98516.69;5014750;28;20038;-62
2021/05/14 01:12:32;;;;;;;3.25;2.20;;;;;;;7.54;76.08;98519.06;5015286;28;20022;-62
2021/05/14 01:14:58;;;;;;;2.40;1.90;;;;;;;7.42;76.33;98517.50;4997782;28;20022;-62
2021/05/14 01:17:23;;;;;;;2.05;1.70;;;;;;;7.38;76.54;98517.16;5014878;28;20042;-62
2021/05/14 01:19:49;;;;;;;3.47;2.20;;;;;;;7.28;77.33;98523.09;5015157;28;20026;-62
2021/05/14 01:22:15;;;;;;;3.35;2.08;;;;;;;7.21;77.39;98516.28;5014640;28;20081;-62
2021/05/14 01:24:40;;;;;;;3.13;2.10;;;;;;;7.19;77.13;98516.53;5015155;28;20139;-62
2021/05/14 01:27:06;;;;;;;2.83;1.90;;;;;;;7.19;77.04;98518.38;5014636;28;20370;-61
2021/05/14 01:29:31;;;;;;;3.72;1.90;;;;;;;7.19;76.53;98515.72;5015332;28;20456;-62
2021/05/14 01:31:57;;;;;;;4.20;1.92;;;;;;;7.18;76.70;98514.91;5014432;28;20459;-61
2021/05/14 01:34:22;;;;;;;3.25;2.00;;;;;;;7.04;77.34;98517.06;5015140;28;20430;-62
2021/05/14 01:36:48;;;;;;;3.05;2.20;;;;;;;7.01;77.37;98512.19;5013302;28;20056;-62
2021/05/14 01:39:15;;;;;;;2.80;1.80;;;;;;;6.94;77.46;98514.19;4997173;28;20088;-62
2021/05/14 01:41:40;;;;;;;3.53;2.10;;;;;;;6.91;77.54;98506.66;5013973;28;20072;-61
2021/05/14 01:44:06;;;;;;;3.97;2.17;;;;;;;6.90;77.28;98513.03;5014781;28;20019;-62
2021/05/14 01:46:32;;;;;;;3.00;2.00;;;;;;;6.92;77.35;98518.94;5029635;28;20121;-62
2021/05/14 01:48:57;;;;;;;3.33;2.10;;;;;;;6.89;77.20;98511.44;5014830;28;20022;-61
2021/05/14 01:51:23;;;;;;;4.65;2.33;;;;;;;6.87;77.52;98510.84;5014158;28;20477;-61
2021/05/14 01:53:49;;;;;;;4.50;2.08;;;;;;;6.74;78.03;98505.78;5014665;28;20057;-62
2021/05/14 01:56:15;;;;;;;3.92;2.10;;;;;;;6.69;77.92;98509.97;5013726;28;20488;-61
2021/05/14 01:58:40;;;;;;;5.30;2.40;;;;;;;6.67;78.34;98508.59;5014587;28;20026;-61
2021/05/14 02:01:06;;;;;;;2.13;1.77;;;;;;;6.65;78.30;98506.16;5014180;28;20046;-61
2021/05/14 02:03:31;;;;;;;4.50;2.28;;;;;;;6.62;78.33;98514.59;5014535;28;20026;-61
2021/05/14 02:05:57;;;;;;;3.25;2.10;;;;;;;6.58;79.04;98513.44;5014062;28;20061;-61
2021/05/14 02:08:22;;;;;;;3.65;2.10;;;;;;;6.47;79.21;98506.28;5014333;28;20049;-61
2021/05/14 02:10:48;;;;;;;2.50;1.95;;;;;;;6.46;79.82;98516.13;5013590;28;20377;-61
2021/05/14 02:13:13;;;;;;;3.78;2.20;;;;;;;6.37;80.07;98503.41;5014368;28;20030;-61
2021/05/14 02:15:39;;;;;;;3.75;2.30;;;;;;;6.34;79.48;98514.50;5013787;28;20034;-61
2021/05/14 02:18:05;;;;;;;6.20;2.13;;;;;;;6.34;79.26;98503.84;5014204;28;20049;-61
2021/05/14 02:20:30;;;;;;;2.58;2.08;;;;;;;6.39;78.76;98501.31;5013731;28;20049;-61
2021/05/14 02:22:56;;;;;;;4.00;2.20;;;;;;;6.41;78.43;98505.34;5014183;28;20026;-61
2021/05/14 02:25:21;;;;;;;2.67;1.90;;;;;;;6.50;77.76;98505.81;5013610;28;20101;-61
2021/05/14 02:27:47;;;;;;;3.53;1.95;;;;;;;6.49;77.93;98498.88;5014045;28;20029;-61
2021/05/14 02:30:13;;;;;;;2.83;2.00;;;;;;;6.51;77.59;98502.09;5013425;28;20080;-61
2021/05/14 02:32:38;;;;;;;3.90;2.13;;;;;;;6.62;76.41;98508.47;5013942;28;20488;-61
2021/05/14 02:35:04;;;;;;;4.13;2.20;;;;;;;6.68;75.85;98491.53;5013389;28;20030;-61
2021/05/14 02:37:30;;;;;;;3.38;2.17;;;;;;;6.69;75.70;98498.50;5013727;28;20034;-61
2021/05/14 02:39:55;;;;;;;3.40;2.00;;;;;;;6.67;76.54;98501.41;5013707;28;20038;-61
2021/05/14 02:42:20;;;;;;;3.53;2.20;;;;;;;6.39;77.26;98498.63;5013135;28;20046;-61
2021/05/14 02:44:49;;;;;;;3.20;2.00;;;;;;;6.20;78.24;98509.41;5013594;28;20052;-61
2021/05/14 02:47:14;;;;;;;4.05;2.20;;;;;;;6.25;77.89;98506.88;5013109;28;20054;-61
2021/05/14 02:49:40;;;;;;;2.47;1.80;;;;;;;6.30;77.34;98510.69;5013646;28;20036;-61
2021/05/14 02:52:05;;;;;;;2.75;2.00;;;;;;;6.25;77.10;98506.88;5012946;28;20044;-61
2021/05/14 02:54:33;;;;;;;2.60;1.88;;;;;;;6.19;77.40;98515.78;4995226;28;20042;-61
2021/05/14 02:56:59;;;;;;;4.20;2.10;;;;;;;6.14;77.62;98505.03;5013159;28;20096;-61
2021/05/14 02:59:24;;;;;;;3.83;1.90;;;;;;;6.16;77.39;98500.28;5013595;28;20496;-61
2021/05/14 03:01:50;;;;;;;3.33;2.22;;;;;;;6.21;76.97;98513.69;5012923;28;20145;-61
2021/05/14 03:04:16;;;;;;;3.45;2.05;;;;;;;6.23;76.30;98505.50;5013372;28;20022;-61
2021/05/14 03:06:42;;;;;;;4.50;2.17;;;;;;;6.31;75.88;98507.00;5012910;28;20038;-61
2021/05/14 03:09:07;;;;;;;3.55;1.90;;;;;;;6.35;74.95;98510.81;5013045;28;20046;-61
2021/05/14 03:11:32;;;;;;;3.50;1.90;;;;;;;6.36;75.43;98504.44;5012827;28;20050;-61
2021/05/14 03:13:58;;;;;;;3.53;2.10;;;;;;;6.32;76.24;98512.09;4995696;28;20042;-62
2021/05/14 03:16:23;;;;;;;3.10;2.00;;;;;;;6.32;76.88;98509.44;5012806;28;20049;-61
2021/05/14 03:18:49;;;;;;;3.70;2.00;;;;;;;6.22;78.05;98510.00;5013025;28;20029;-61
2021/05/14 03:21:14;;;;;;;3.60;2.33;;;;;;;6.10;80.17;98506.53;5012762;28;20053;-61
2021/05/14 03:23:40;;;;;;;2.88;2.10;;;;;;;6.07;80.99;98507.00;5013043;28;20033;-61
2021/05/14 03:26:05;;;;;;;3.30;2.13;;;;;;;6.09;81.12;98510.25;5012569;28;20042;-61
2021/05/14 03:28:31;;;;;;;4.95;2.50;;;;;;;6.06;81.08;98502.69;5012907;28;20034;-61
2021/05/14 03:30:57;;;;;;;4.07;2.05;;;;;;;6.05;81.05;98506.41;5012446;28;20052;-61
2021/05/14 03:33:22;;;;;;;2.67;2.08;;;;;;;6.12;80.65;98509.78;5012872;28;20037;-61
2021/05/14 03:35:51;;;;;;;3.00;2.00;;;;;;;6.20;80.37;98506.75;5012571;28;20045;-61
2021/05/14 03:38:16;;;;;;;2.60;1.92;;;;;;;6.16;80.53;98510.09;5012800;28;20026;-61
2021/05/14 03:40:43;;;;;;;3.38;2.00;;;;;;;6.13;80.65;98506.06;5012398;28;20100;-61
2021/05/14 03:43:08;;;;;;;3.60;2.25;;;;;;;6.11;80.48;98508.13;5012977;28;20026;-61
2021/05/14 03:45:34;;;;;;;4.10;1.90;;;;;;;6.13;80.17;98500.75;5012362;28;20049;-61
2021/05/14 03:47:59;;;;;;;3.15;1.90;;;;;;;6.11;79.97;98500.16;5012894;28;20041;-61
2021/05/14 03:50:28;;;;;;;6.97;2.20;;;;;;;6.15;79.71;98497.88;5027555;28;20041;-62
2021/05/14 03:52:54;;;;;;;3.00;2.00;;;;;;;6.19;79.26;98502.50;5012842;28;20022;-61
2021/05/14 03:55:19;;;;;;;3.63;1.90;;;;;;;6.08;79.70;98508.59;5012577;28;20018;-61
2021/05/14 03:57:45;;;;;;;8.30;2.35;;;;;;;6.04;80.28;98502.13;5012888;28;20354;-61
2021/05/14 04:00:11;;;;;;;2.60;1.88;;;;;;;6.03;80.71;98509.28;5012365;28;20384;-62
2021/05/14 04:02:37;;;;;;;3.72;2.13;;;;;;;6.04;80.70;98507.44;5012600;28;20021;-61
2021/05/14 04:05:02;;;;;;;2.47;2.00;;;;;;;6.01;80.70;98503.38;5011799;28;20017;-61
2021/05/14 04:07:28;;;;;;;4.60;2.20;;;;;;;5.92;80.94;98504.75;5014800;28;20017;-61
2021/05/14 04:10:07;;;;;;;3.10;2.03;;;;;;;5.88;81.13;98497.47;5016465;28;20484;-62
2021/05/14 04:15:09;;;;;;;2.88;1.90;;;;;;;5.85;80.69;98501.38;5016112;28;20396;-61
2021/05/14 04:17:34;;;;;;;3.80;2.00;;;;;;;5.95;80.09;98503.53;5016525;28;20034;-61
2021/05/14 04:20:00;;;;;;;2.60;2.00;;;;;;;5.98;79.42;98501.19;4998836;28;20053;-61
2021/05/14 04:22:26;;;;;;;2.75;2.20;;;;;;;5.99;79.03;98494.84;5015998;28;20057;-61
2021/05/14 04:24:52;;;;;;;3.38;1.90;;;;;;;6.15;77.68;98493.34;4998628;28;20061;-61
2021/05/14 04:27:17;;;;;;;3.38;2.13;;;;;;;6.11;78.16;98497.50;5015767;28;20033;-61
2021/05/14 04:29:43;;;;;;;5.20;2.08;;;;;;;6.17;79.15;98507.22;5016228;28;20026;-61
2021/05/14 04:32:08;;;;;;;3.95;2.00;;;;;;;6.34;78.45;98503.84;4997862;28;20173;-61
2021/05/14 04:34:33;;;;;;;3.17;2.28;;;;;;;6.51;78.19;98499.44;4998539;28;20068;-61
2021/05/14 04:36:59;;;;;;;2.92;1.90;;;;;;;6.61;78.01;98512.97;5015829;28;20030;-61
2021/05/14 04:39:25;;;;;;;4.05;1.98;;;;;;;6.74;78.01;98506.59;5016160;28;20030;-61
2021/05/14 04:41:50;;;;;;;3.60;2.40;;;;;;;6.86;77.59;98515.38;5015630;28;20396;-62
2021/05/14 04:44:16;;;;;;;2.35;1.95;;;;;;;7.56;76.22;98518.78;5015831;28;20037;-61
2021/05/14 04:46:42;;;;;;;5.40;2.00;;;;;;;8.74;71.15;98517.97;5015439;28;20034;-61
2021/05/14 04:49:07;;;;;;;4.18;1.83;;;;;;;9.25;67.34;98522.03;5015723;28;20029;-61
2021/05/14 04:51:33;;;;;;;3.55;1.90;;;;;;;8.74;69.85;98513.44;5015235;28;20047;-61
2021/05/14 04:53:58;;;;;;;4.85;2.00;;;;;;;8.57;70.42;98515.34;5015784;28;20029;-61
2021/05/14 04:56:24;;;;;;;3.20;2.10;;;;;;;10.58;63.33;98519.66;4997849;28;20041;-61
2021/05/14 04:58:49;;;;;;;2.67;1.80;;;;;;;10.78;61.79;98518.97;5015700;28;20373;-61
2021/05/14 05:01:15;;;;;;;4.47;1.75;;;;;;;10.60;62.08;98520.22;5015239;28;20038;-62
2021/05/14 05:03:54;;;;;;;3.78;1.90;;;;;;;9.38;66.56;98520.81;5015589;28;20025;-61
2021/05/14 05:06:20;;;;;;;3.33;1.70;;;;;;;8.20;72.03;98518.50;5015649;28;20037;-62
2021/05/14 05:08:46;;;;;;;2.67;1.80;;;;;;;8.31;71.25;98520.28;5015365;28;20454;-61
2021/05/14 05:11:11;;;;;;;2.92;1.88;;;;;;;7.97;72.70;98514.16;5015162;28;20038;-61
2021/05/14 05:13:37;;;;;;;3.45;1.90;;;;;;;7.44;75.01;98512.72;5015566;28;20060;-61
2021/05/14 05:16:02;;;;;;;3.20;1.90;;;;;;;7.43;75.10;98509.25;5014908;28;20168;-61
2021/05/14 05:18:28;;;;;;;3.97;2.10;;;;;;;7.65;75.21;98505.91;5014820;28;20118;-61
2021/05/14 05:20:53;;;;;;;2.53;2.00;;;;;;;8.10;73.44;98518.34;5015008;28;20041;-61
2021/05/14 05:23:19;;;;;;;4.45;2.35;;;;;;;8.34;72.93;98519.78;5015105;28;20084;-61
2021/05/14 05:25:44;;;;;;;2.35;1.70;;;;;;;8.67;71.21;98528.03;5014923;28;20045;-61
2021/05/14 05:28:10;;;;;;;3.67;1.90;;;;;;;8.70;70.97;98533.66;5015265;28;20034;-62
2021/05/14 05:30:35;;;;;;;2.53;1.95;;;;;;;8.69;71.15;98529.38;5014715;28;20049;-62
2021/05/14 05:33:01;;;;;;;3.33;1.80;;;;;;;9.32;68.73;98529.88;5030337;28;20042;-62
2021/05/14 05:35:26;;;;;;;4.50;2.08;;;;;;;10.52;64.58;98534.91;5014652;28;20037;-62
2021/05/14 05:37:53;;;;;;;3.50;2.00;;;;;;;10.21;66.65;98535.75;5015143;28;20029;-62
2021/05/14 05:40:19;;;;;;;3.08;1.77;;;;;;;9.53;66.90;98535.44;5014796;28;20037;-62
2021/05/14 05:42:45;;;;;;;4.53;2.22;;;;;;;9.00;69.15;98535.13;5014940;28;20026;-62
2021/05/14 05:45:10;;;;;;;3.20;1.83;;;;;;;8.71;70.92;98537.97;5014299;28;20033;-62
2021/05/14 05:47:36;;;;;;;3.83;1.88;;;;;;;9.36;68.71;98543.53;5014728;28;20487;-61
2021/05/14 05:50:02;;;;;;;3.70;1.80;;;;;;;9.98;67.54;98547.63;5029590;28;20030;-62
2021/05/14 05:52:28;;;;;;;2.95;1.70;;;;;;;10.42;65.35;98548.25;5014806;28;20029;-62
2021/05/14 05:54:53;;;;;;;2.60;1.80;;;;;;;10.25;65.96;98558.28;4997067;28;20486;-62
2021/05/14 05:57:19;;;;;;;3.42;1.90;;;;;;;9.44;68.67;98551.13;5014214;28;20030;-62
2021/05/14 05:59:44;;;;;;;3.63;1.80;;;;;;;9.58;68.34;98560.34;5014579;28;20044;-62
2021/05/14 06:02:10;;;;;;;2.25;1.70;;;;;;;9.85;68.67;98554.19;4996783;28;20380;-61
2021/05/14 06:04:35;;;;;;;3.13;1.83;;;;;;;9.28;69.98;98558.16;5014064;28;20465;-61
2021/05/14 06:07:01;;;;;;;3.40;2.00;;;;;;;9.49;69.44;98556.53;5014050;28;20038;-62
2021/05/14 06:09:26;;;;;;;3.08;2.00;;;;;;;9.57;69.76;98558.75;4996819;28;20396;-62
2021/05/14 06:11:52;;;;;;;2.95;1.90;;;;;;;9.40;69.81;98558.03;5013890;28;20046;-61
2021/05/14 06:14:18;;;;;;;4.93;1.90;;;;;;;10.00;68.48;98567.72;5014438;28;20030;-62
2021/05/14 06:16:43;;;;;;;3.40;1.85;;;;;;;10.29;67.20;98570.13;5013932;28;20030;-62
2021/05/14 06:19:14;;;;;;;3.05;2.17;;;;;;;10.27;67.42;98575.69;5014320;28;20213;-62
2021/05/14 06:21:45;;;;;;;;;;;;;;;10.03;68.07;98567.19;5014363;28;20038;-61
2021/05/14 06:24:11;;;;;;;4.47;2.08;;;;;;;9.32;71.04;98574.53;5014294;28;19963;-61
2021/05/14 06:26:37;;;;;;;2.45;1.88;;;;;;;9.98;70.02;98569.84;5013865;28;20034;-62
2021/05/14 06:29:02;;;;;;;4.57;2.20;;;;;;;9.91;69.92;98570.06;5013403;28;20041;-61
2021/05/14 06:31:28;;;;;;;3.83;2.15;;;;;;;9.77;70.26;98578.75;5013541;28;20131;-62
2021/05/14 06:33:53;;;;;;;3.83;2.03;;;;;;;9.98;69.96;98569.84;5014443;28;20046;-61
2021/05/14 06:36:19;;;;;;;2.65;2.00;;;;;;;9.83;70.11;98575.84;5013597;28;20033;-61
2021/05/14 06:38:44;;;;;;;5.15;2.00;;;;;;;10.24;69.02;98583.47;5013987;28;20077;-62
2021/05/14 06:41:09;;;;;;;4.25;2.10;;;;;;;10.87;66.64;98578.28;5013477;28;20046;-61
2021/05/14 06:43:35;;;;;;;3.88;2.10;;;;;;;10.32;68.33;98581.13;5029167;28;20025;-61
2021/05/14 06:46:01;;;;;;;4.18;1.80;;;;;;;10.12;68.62;98586.28;5013356;28;20101;-62
2021/05/14 06:48:27;;;;;;;3.58;2.10;;;;;;;10.51;67.93;98594.13;5014102;28;20342;-61
2021/05/14 06:50:52;;;;;;;2.58;1.80;;;;;;;10.53;67.41;98598.19;4995809;28;20118;-62
2021/05/14 06:53:18;;;;;;;3.10;2.03;;;;;;;10.75;67.37;98600.72;5013902;28;20022;-61
2021/05/14 06:55:43;;;;;;;5.13;2.00;;;;;;;11.53;64.94;98591.13;5013382;28;20041;-62
2021/05/14 06:58:09;;;;;;;3.22;1.83;;;;;;;11.91;63.52;98599.88;5013700;28;20037;-62
2021/05/14 07:00:34;;;;;;;3.75;1.92;;;;;;;12.21;62.96;98597.19;5013571;28;20045;-61
2021/05/14 07:03:00;;;;;;;4.22;2.10;;;;;;;12.96;61.15;98591.19;5013610;28;20025;-62
2021/05/14 07:05:25;;;;;;;3.17;1.85;;;;;;;12.94;61.06;98596.84;5013223;28;20046;-62
2021/05/14 07:07:52;;;;;;;3.25;2.13;;;;;;;12.90;60.72;98595.78;5013584;28;20022;-62
2021/05/14 07:10:17;;;;;;;4.05;2.15;;;;;;;13.09;60.83;98600.56;5012989;28;20438;-62
2021/05/14 07:12:42;;;;;;;2.33;1.80;;;;;;;12.69;60.93;98589.63;4995884;28;20025;-62
2021/05/14 07:15:09;;;;;;;3.95;2.22;;;;;;;12.90;60.00;98597.66;5012826;28;20470;-61
2021/05/14 07:17:34;;;;;;;4.10;1.90;;;;;;;13.55;59.11;98600.41;5013617;28;20026;-62
2021/05/14 07:20:00;;;;;;;4.53;2.05;;;;;;;14.23;55.75;98602.41;5013567;28;20049;-62
2021/05/14 07:22:25;;;;;;;6.07;1.98;;;;;;;15.42;53.45;98603.66;5013102;28;20048;-62
2021/05/14 07:24:51;;;;;;;3.20;1.90;;;;;;;15.32;53.38;98604.59;5013503;28;20024;-62
2021/05/14 07:27:16;;;;;;;2.78;1.80;;;;;;;16.18;50.99;98601.81;5012748;28;20034;-62
2021/05/14 07:29:42;;;;;;;3.60;1.98;;;;;;;16.82;49.60;98606.72;5013526;28;20393;-62
2021/05/14 07:32:08;;;;;;;4.22;2.00;;;;;;;16.75;47.86;98609.00;5013003;28;20046;-62
2021/05/14 07:34:33;;;;;;;3.38;1.90;;;;;;;18.28;44.92;98607.75;5013248;28;20065;-62
2021/05/14 07:36:59;;;;;;;3.95;2.10;;;;;;;18.88;43.56;98609.28;5027971;28;20116;-62
2021/05/14 07:39:24;;;;;;;2.60;1.67;;;;;;;19.67;40.36;98610.31;5013121;28;20029;-62
2021/05/14 07:41:50;;;;;;;1.85;1.60;;;;;;;20.31;39.38;98610.53;5012301;28;20045;-62
2021/05/14 07:44:16;;;;;;;8.95;8.05;;;;;;;20.46;38.21;98610.03;5013035;28;20068;-62
2021/05/14 07:46:41;;;;;;;4.97;2.10;;;;;;;20.77;38.52;98606.31;5012710;28;20088;-62
2021/05/14 07:49:07;;;;;;;5.60;2.22;;;;;;;22.64;34.51;98610.75;5013140;28;20631;-62
2021/05/14 07:51:32;;;;;;;3.30;1.90;;;;;;;21.63;36.43;98609.78;4992420;28;20042;-62
2021/05/14 07:53:58;;;;;;;3.33;2.05;;;;;;;20.45;39.38;98600.28;4996270;28;20072;-62
2021/05/14 07:56:23;;;;;;;3.15;1.90;;;;;;;17.31;45.84;98597.13;4992430;28;20034;-62
2021/05/14 07:58:49;;;;;;;3.70;1.90;;;;;;;16.81;48.65;98597.81;4993077;28;20037;-62
2021/05/14 08:01:14;;;;;;;4.20;1.80;;;;;;;19.36;42.87;98603.06;4993040;28;20049;-62
2021/05/14 08:03:40;;;;;;;4.75;1.90;;;;;;;17.13;49.01;98600.75;4976147;28;20022;-62
2021/05/14 08:06:08;;;;;;;3.47;2.03;;;;;;;16.03;51.17;98596.66;4992961;28;20038;-62
2021/05/14 08:08:38;;;;;;;4.10;1.80;;;;;;;17.34;49.88;98596.50;4993179;28;20042;-62
2021/05/14 08:11:04;;;;;;;3.63;1.80;;;;;;;17.74;49.09;98595.97;4996136;28;20039;-62
2021/05/14 08:13:29;;;;;;;4.03;2.08;;;;;;;17.87;46.15;98593.25;5007597;28;20050;-62
2021/05/14 08:15:55;;;;;;;5.10;1.85;;;;;;;18.60;46.13;98595.84;5012122;28;20038;-62
2021/05/14 08:18:21;;;;;;;4.72;1.83;;;;;;;18.19;45.33;98594.13;5012420;28;20029;-62
2021/05/14 08:20:46;;;;;;;3.80;2.03;;;;;;;14.94;55.27;98598.28;5012379;28;20038;-62
2021/05/14 08:23:12;;;;;;;5.18;1.70;;;;;;;14.42;56.12;98597.94;5012651;28;20044;-62
2021/05/14 08:25:38;;;;;;;3.05;1.80;;;;;;;16.32;51.37;98593.75;5012221;28;20038;-62
2021/05/14 08:28:04;;;;;;;4.97;1.98;;;;;;;16.17;52.44;98592.13;5012899;28;20030;-62
2021/05/14 08:30:29;;;;;;;6.13;1.90;;;;;;;17.30;48.62;98594.72;5012027;28;20048;-62
2021/05/14 08:32:55;;;;;;;4.25;1.60;;;;;;;19.64;43.44;98590.00;5012746;28;20022;-62
2021/05/14 08:35:20;;;;;;;2.35;1.60;;;;;;;21.49;38.54;98598.31;5012292;28;20333;-62
2021/05/14 08:37:47;;;;;;;4.38;1.60;;;;;;;20.19;40.36;98594.06;5012789;28;20157;-62
2021/05/14 08:40:12;;;;;;;2.55;1.70;;;;;;;20.44;40.29;98601.41;5012270;28;20469;-61
2021/05/14 08:42:39;;;;;;;9.48;2.30;;;;;;;20.93;37.94;98603.06;5012530;28;20025;-61
2021/05/14 08:45:06;;;;;;;3.78;1.77;;;;;;;21.55;37.87;98607.94;5010902;28;20083;-61
2021/05/14 08:47:31;;;;;;;5.00;2.25;;;;;;;21.40;38.02;98605.78;5012420;28;20526;-61
2021/05/14 08:49:58;;;;;;;1.80;1.48;;;;;;;19.46;40.74;98608.19;5011397;28;20026;-61
2021/05/14 08:52:24;;;;;;;5.60;2.08;;;;;;;20.12;39.25;98600.00;4994904;28;20056;-61
2021/05/14 08:54:49;;;;;;;3.97;1.65;;;;;;;20.21;38.86;98610.88;4998247;28;20018;-61
2021/05/14 08:57:15;;;;;;;2.83;1.60;;;;;;;18.79;41.79;98611.13;5030508;28;20037;-61
2021/05/14 08:59:40;;;;;;;2.97;1.70;;;;;;;18.17;45.27;98598.25;5016112;28;20029;-61
2021/05/14 09:02:07;;;;;;;2.95;1.70;;;;;;;19.55;41.05;98600.88;4997867;28;20034;-61
2021/05/14 09:04:35;;;;;;;3.28;1.58;;;;;;;19.36;42.29;98605.78;5015795;28;20105;-61
2021/05/14 09:07:12;;;;;;;3.63;1.60;;;;;;;20.01;40.77;98613.09;5015436;28;20030;-61
2021/05/14 09:09:38;;;;;;;3.30;1.83;;;;;;;20.35;39.38;98606.06;5015726;28;20042;-61
2021/05/14 09:12:03;;;;;;;2.83;1.70;;;;;;;19.73;41.47;98607.16;5015071;28;20042;-61
2021/05/14 09:14:41;;;;;;;2.40;1.63;;;;;;;17.56;45.21;98593.09;5015758;28;20018;-63
2021/05/14 09:17:14;;;;;;;2.33;1.70;;;;;;;18.66;43.79;98602.72;5015455;28;20037;-62
2021/05/14 09:19:41;;;;;;;2.97;1.60;;;;;;;18.84;42.74;98603.66;5015675;28;20029;-62
2021/05/14 09:22:17;;;;;;;2.85;1.60;;;;;;;15.63;50.05;98596.09;5015115;28;20584;-62
2021/05/14 09:24:45;;;;;;;3.10;1.77;;;;;;;19.69;42.55;98602.69;5015592;28;20022;-62
2021/05/14 09:27:27;;;;;;;1.70;1.50;;;;;;;18.13;45.02;98589.16;5015073;28;20077;-63
2021/05/14 09:29:52;;;;;;;4.50;1.92;;;;;;;16.25;50.46;98590.63;5015276;28;20079;-61
2021/05/14 09:32:21;;;;;;;2.50;1.58;;;;;;;17.28;45.87;98586.91;5029868;28;20041;-62
2021/05/14 09:34:48;;;;;;;2.03;1.30;;;;;;;17.11;46.55;98586.72;5015642;28;20026;-63
2021/05/14 09:37:18;;;;;;;3.58;1.40;;;;;;;20.19;40.98;98597.59;5014845;28;20042;-63
2021/05/14 09:39:43;;;;;;;3.58;1.60;;;;;;;17.42;43.29;98587.69;5015360;28;20120;-62
2021/05/14 09:42:09;;;;;;;4.45;1.25;;;;;;;20.11;38.69;98592.16;4997165;28;20396;-63
2021/05/14 09:44:35;;;;;;;3.20;1.25;;;;;;;19.16;39.99;98583.50;5030219;28;20049;-62
2021/05/14 09:47:00;;;;;;;2.33;1.02;;;;;;;20.57;37.80;98590.69;4996853;28;20507;-62
2021/05/14 09:49:28;;;;;;;1.95;1.33;;;;;;;20.86;34.05;98598.91;5015166;28;20123;-62
2021/05/14 09:51:54;;;;;;;2.85;1.08;;;;;;;20.78;36.91;98591.56;5014182;28;20137;-63
2021/05/14 09:54:24;;;;;;;1.08;0.90;;;;;;;20.03;37.63;98591.81;5014991;28;20437;-62
2021/05/14 09:59:54;;;;;;;1.27;1.10;;;;;;;20.55;35.25;98587.50;5012099;28;20629;-62
2021/05/14 10:02:24;;;;;;;1.50;1.17;;;;;;;19.50;37.53;98576.56;5014184;28;20113;-63
2021/05/14 10:04:49;;;;;;;;;;;;;;;19.66;37.81;98584.25;5014106;28;20421;-62
2021/05/14 10:07:15;;;;;;;1.98;1.30;;;;;;;20.83;34.95;98582.44;5014285;28;20000;-62
2021/05/14 10:09:41;;;;;;;2.85;1.15;;;;;;;19.49;38.69;98580.38;4996392;28;20038;-62
2021/05/14 10:12:07;;;;;;;1.52;1.25;;;;;;;19.90;36.72;98579.19;5013985;28;20132;-61
2021/05/14 10:14:32;;;;;;;3.00;1.27;;;;;;;20.57;37.07;98571.63;5013613;28;20049;-61
2021/05/14 10:16:57;;;;;;;1.77;1.10;;;;;;;19.57;38.65;98563.31;4996392;28;20393;-63
2021/05/14 10:19:23;;;;;;;1.08;0.93;;;;;;;18.50;42.00;98577.13;4996935;28;20026;-63
2021/05/14 10:21:48;;;;;;;1.25;1.15;;;;;;;19.57;39.57;98560.59;4996432;28;20041;-62
2021/05/14 10:24:40;;;;;;;2.88;1.30;;;;;;;18.39;42.98;98559.47;5014360;28;20030;-62
2021/05/14 10:27:15;;;;;;;1.67;1.10;;;;;;;19.10;40.50;98563.03;5013868;28;20049;-62
2021/05/14 10:29:42;;;;;;;2.70;1.30;;;;;;;17.65;42.59;98541.69;5014389;28;20029;-62
2021/05/14 10:32:08;;;;;;;0.82;0.82;;;;;;;17.87;42.52;98541.75;5012517;28;20041;-62
2021/05/14 10:34:34;;;;;;;1.65;1.10;;;;;;;18.24;40.75;98547.09;5014306;28;20025;-63
2021/05/14 10:36:59;;;;;;;2.00;1.10;;;;;;;18.37;41.83;98550.84;4996265;28;20374;-63
2021/05/14 10:39:43;;;;;;;2.03;1.33;;;;;;;18.04;41.53;98545.69;5013125;28;20141;-63
2021/05/14 10:42:13;;;;;;;2.35;1.70;;;;;;;17.36;43.81;98540.13;5013600;28;20511;-64
2021/05/14 10:44:52;;;;;;;1.38;1.15;;;;;;;18.23;42.03;98545.50;5014135;28;20366;-62
2021/05/14 10:47:23;;;;;;;2.03;1.20;;;;;;;17.99;44.43;98540.38;5013385;28;20088;-62
2021/05/14 10:49:53;;;;;;;3.20;1.15;;;;;;;17.53;44.40;98541.44;5014099;28;20065;-62
2021/05/14 10:52:19;;;;;;;4.82;2.33;;;;;;;17.29;45.90;98547.06;5013387;28;20107;-63
2021/05/14 10:54:44;;;;;;;2.80;1.42;;;;;;;16.99;50.99;98541.97;5013976;28;20105;-63
2021/05/14 10:57:10;;;;;;;3.10;1.50;;;;;;;16.90;52.08;98546.50;5013473;28;20053;-63
2021/05/14 10:59:36;;;;;;;3.95;1.50;;;;;;;17.09;50.62;98543.69;5013703;28;20029;-63
2021/05/14 11:02:28;;;;;;;3.13;1.30;;;;;;;17.03;49.14;98548.41;5013151;28;20030;-63
2021/05/14 11:04:53;;;;;;;2.10;1.23;;;;;;;16.85;47.97;98551.19;4996275;28;20026;-64
2021/05/14 11:07:40;;;;;;;2.10;1.40;;;;;;;17.15;49.22;98550.63;5012914;28;20535;-63
2021/05/14 11:10:14;;;;;;;3.95;1.48;;;;;;;16.30;58.29;98550.00;5012836;28;20049;-64
2021/05/14 11:12:41;;;;;;;4.60;1.60;;;;;;;16.28;59.55;98548.69;5013255;28;20465;-63
2021/05/14 11:15:18;;;;;;;2.28;0.95;;;;;;;16.29;58.98;98547.56;5012673;28;20113;-64
2021/05/14 11:18:06;;;;;;;1.67;1.08;;;;;;;16.53;54.59;98548.25;5013513;28;20096;-63
2021/05/14 11:20:41;;;;;;;2.17;1.13;;;;;;;17.39;52.04;98538.72;5012838;28;20346;-64
2021/05/14 11:23:28;;;;;;;1.80;1.10;;;;;;;18.55;45.52;98536.28;5013420;28;20464;-63
2021/05/14 11:25:54;;;;;;;1.92;0.90;;;;;;;18.09;46.92;98534.72;5012648;28;20445;-63
2021/05/14 11:28:19;;;;;;;1.17;0.90;;;;;;;18.06;45.80;98535.34;4995765;28;20092;-63
2021/05/14 11:30:54;;;;;;;0.80;0.65;;;;;;;17.42;46.48;98538.94;5012691;28;20065;-63
2021/05/14 11:33:26;;;;;;;1.30;0.70;;;;;;;17.53;47.09;98533.31;4995644;28;20022;-63
2021/05/14 11:35:51;;;;;;;0.70;0.70;;;;;;;17.09;44.24;98535.56;5012674;28;20030;-63
2021/05/14 11:38:16;;;;;;;0.98;0.60;;;;;;;16.14;44.14;98527.00;5013226;28;20037;-63
2021/05/14 11:40:43;;;;;;;2.28;0.82;;;;;;;15.72;44.89;98537.66;5012712;28;20034;-63
2021/05/14 11:43:13;;;;;;;1.15;0.80;;;;;;;17.07;44.33;98534.25;5013283;28;20064;-63